Pti Sextans — VRCS6 — position and weather

sailwx.info

Track history (hours):
 
Tides and Currents Weather Stations Pressure Air Temp Water Temp Dewpoint Dewpoint Depression Visibility Wind Speed Wind Dir Waves Ship Positions

Pti Sextans

Last reported at 2017-Sep-21 08:28 UTC. Time now 2017-Sep-23 07:27 UTC.
Position S 02°13' W 044°13'.

Length 183 m; draft 9.5 m.

Type: Tanker. MMSI: 477768200.

Date/timePositionNaut miles runAvg speedWind from/ knotsBaromVisibWave heightAir tempDewpointWater temp
2017-Sep-21 08:28S 02°13' W 044°13'611.8
2017-Sep-21 08:00S 02°18' W 044°16'611.6
2017-Sep-21 07:30S 02°23' W 044°19'5 9.6
2017-Sep-21 07:00S 02°27' W 044°21'4 8.4
2017-Sep-21 06:30S 02°31' W 044°23'3 6.6
2017-Sep-21 06:00S 02°34' W 044°23'  
2017-Sep-18 04:02S 02°35' W 044°22'0 0.0
2017-Sep-18 04:00S 02°35' W 044°22'0 0.6
2017-Sep-18 03:30S 02°35' W 044°22'1 3.0
2017-Sep-18 03:01S 02°34' W 044°23'3 6.9
2017-Sep-18 02:30S 02°30' W 044°23'4 8.7
2017-Sep-18 02:01S 02°26' W 044°21'3 5.7
2017-Sep-18 01:31S 02°24' W 044°19'4 8.0
2017-Sep-18 01:01S 02°21' W 044°17'510.0
2017-Sep-18 00:31S 02°16' W 044°15'611.0
2017-Sep-18 00:01S 02°11' W 044°12'612.0
2017-Sep-17 23:31S 02°06' W 044°09'13 0.3
2017-Sep-15 21:55S 01°55' W 044°02'0 0.1
2017-Sep-15 21:28S 01°55' W 044°02'  
Track history (hours):
 
Tides and Currents Weather Stations Pressure Air Temp Water Temp Dewpoint Dewpoint Depression Visibility Wind Speed Wind Dir Waves Ship Positions

Pti Sextans

Last reported at 2017-Sep-21 08:28 UTC. Time now 2017-Sep-23 07:27 UTC.
Position S 02°13' W 044°13'.

Length 183 m; draft 9.5 m.

Type: Tanker. MMSI: 477768200.

Date/timePositionNaut miles runAvg speedWind from/ knotsBaromVisibWave heightAir tempDewpointWater temp
2017-Sep-21 08:28S 02°13' W 044°13'611.8
2017-Sep-21 08:00S 02°18' W 044°16'611.6
2017-Sep-21 07:30S 02°23' W 044°19'5 9.6
2017-Sep-21 07:00S 02°27' W 044°21'4 8.4
2017-Sep-21 06:30S 02°31' W 044°23'3 6.6
2017-Sep-21 06:00S 02°34' W 044°23'  
2017-Sep-18 04:02S 02°35' W 044°22'0 0.0
2017-Sep-18 04:00S 02°35' W 044°22'0 0.6
2017-Sep-18 03:30S 02°35' W 044°22'1 3.0
2017-Sep-18 03:01S 02°34' W 044°23'3 6.9
2017-Sep-18 02:30S 02°30' W 044°23'4 8.7
2017-Sep-18 02:01S 02°26' W 044°21'3 5.7
2017-Sep-18 01:31S 02°24' W 044°19'4 8.0
2017-Sep-18 01:01S 02°21' W 044°17'510.0
2017-Sep-18 00:31S 02°16' W 044°15'611.0
2017-Sep-18 00:01S 02°11' W 044°12'612.0
2017-Sep-17 23:31S 02°06' W 044°09'13 0.3
2017-Sep-15 21:55S 01°55' W 044°02'0 0.1
2017-Sep-15 21:28S 01°55' W 044°02'  

Dump ship's entire track history